sensor_id;sensor_type;location;lat;lon;timestamp;temperature;humidity
23267;DHT22;11802;53.160;8.214;2023-07-13T00:01:03;14.40;99.90
23267;DHT22;11802;53.160;8.214;2023-07-13T00:03:29;14.40;99.90
23267;DHT22;11802;53.160;8.214;2023-07-13T00:06:01;14.50;99.90
23267;DHT22;11802;53.160;8.214;2023-07-13T00:08:29;14.40;99.90
23267;DHT22;11802;53.160;8.214;2023-07-13T00:10:55;14.50;99.90
23267;DHT22;11802;53.160;8.214;2023-07-13T00:13:21;14.40;99.90
23267;DHT22;11802;53.160;8.214;2023-07-13T00:15:46;14.40;99.90
23267;DHT22;11802;53.160;8.214;2023-07-13T00:18:12;14.40;99.90
23267;DHT22;11802;53.160;8.214;2023-07-13T00:20:37;14.40;99.90
23267;DHT22;11802;53.160;8.214;2023-07-13T00:23:03;14.50;99.90
23267;DHT22;11802;53.160;8.214;2023-07-13T00:25:28;14.40;99.90
23267;DHT22;11802;53.160;8.214;2023-07-13T00:27:54;14.40;99.90
23267;DHT22;11802;53.160;8.214;2023-07-13T00:30:21;14.40;99.90
23267;DHT22;11802;53.160;8.214;2023-07-13T00:32:47;14.40;99.90
23267;DHT22;11802;53.160;8.214;2023-07-13T00:35:14;14.30;99.90
23267;DHT22;11802;53.160;8.214;2023-07-13T00:37:39;14.30;99.90
23267;DHT22;11802;53.160;8.214;2023-07-13T00:40:06;14.40;99.90
23267;DHT22;11802;53.160;8.214;2023-07-13T00:42:32;14.30;99.90
23267;DHT22;11802;53.160;8.214;2023-07-13T00:47:50;14.30;99.90
23267;DHT22;11802;53.160;8.214;2023-07-13T00:50:16;14.30;99.90
23267;DHT22;11802;53.160;8.214;2023-07-13T00:52:46;14.30;99.90
23267;DHT22;11802;53.160;8.214;2023-07-13T00:55:14;14.30;99.90
23267;DHT22;11802;53.160;8.214;2023-07-13T00:57:41;14.30;99.90
23267;DHT22;11802;53.160;8.214;2023-07-13T01:00:07;14.20;99.90
23267;DHT22;11802;53.160;8.214;2023-07-13T01:02:35;14.20;99.90
23267;DHT22;11802;53.160;8.214;2023-07-13T01:05:02;14.30;99.90
23267;DHT22;11802;53.160;8.214;2023-07-13T01:07:27;14.30;99.90
23267;DHT22;11802;53.160;8.214;2023-07-13T01:09:53;14.40;99.90
23267;DHT22;11802;53.160;8.214;2023-07-13T01:12:18;14.40;99.90
23267;DHT22;11802;53.160;8.214;2023-07-13T01:14:44;14.40;99.90
23267;DHT22;11802;53.160;8.214;2023-07-13T01:17:10;14.50;99.90
23267;DHT22;11802;53.160;8.214;2023-07-13T01:19:40;14.40;99.90
23267;DHT22;11802;53.160;8.214;2023-07-13T01:22:10;14.40;99.90
23267;DHT22;11802;53.160;8.214;2023-07-13T01:24:37;14.40;99.90
23267;DHT22;11802;53.160;8.214;2023-07-13T01:27:04;14.30;99.90
23267;DHT22;11802;53.160;8.214;2023-07-13T01:29:32;14.30;99.90
23267;DHT22;11802;53.160;8.214;2023-07-13T01:31:58;14.30;99.90
23267;DHT22;11802;53.160;8.214;2023-07-13T01:34:23;14.20;99.90
23267;DHT22;11802;53.160;8.214;2023-07-13T01:36:49;14.10;99.90
23267;DHT22;11802;53.160;8.214;2023-07-13T01:39:14;14.10;99.90
23267;DHT22;11802;53.160;8.214;2023-07-13T01:41:40;14.20;99.90
23267;DHT22;11802;53.160;8.214;2023-07-13T01:44:06;14.10;99.90
23267;DHT22;11802;53.160;8.214;2023-07-13T01:46:31;14.10;99.90
23267;DHT22;11802;53.160;8.214;2023-07-13T01:48:57;14.10;99.90
23267;DHT22;11802;53.160;8.214;2023-07-13T01:51:23;14.10;99.90
23267;DHT22;11802;53.160;8.214;2023-07-13T01:53:49;14.10;99.90
23267;DHT22;11802;53.160;8.214;2023-07-13T01:56:15;14.10;99.90
23267;DHT22;11802;53.160;8.214;2023-07-13T01:58:40;14.10;99.90
23267;DHT22;11802;53.160;8.214;2023-07-13T02:01:06;14.10;99.90
23267;DHT22;11802;53.160;8.214;2023-07-13T02:03:31;14.10;99.90
23267;DHT22;11802;53.160;8.214;2023-07-13T02:05:57;14.10;99.90
23267;DHT22;11802;53.160;8.214;2023-07-13T02:08:22;14.10;99.90
23267;DHT22;11802;53.160;8.214;2023-07-13T02:10:48;14.10;99.90
23267;DHT22;11802;53.160;8.214;2023-07-13T02:13:13;14.00;99.90
23267;DHT22;11802;53.160;8.214;2023-07-13T02:15:39;14.00;99.90
23267;DHT22;11802;53.160;8.214;2023-07-13T02:18:06;14.10;99.90
23267;DHT22;11802;53.160;8.214;2023-07-13T02:20:31;14.10;99.90
23267;DHT22;11802;53.160;8.214;2023-07-13T02:22:57;14.20;99.90
23267;DHT22;11802;53.160;8.214;2023-07-13T02:25:22;14.20;99.90
23267;DHT22;11802;53.160;8.214;2023-07-13T02:27:48;14.30;99.90
23267;DHT22;11802;53.160;8.214;2023-07-13T02:30:14;14.30;99.90
23267;DHT22;11802;53.160;8.214;2023-07-13T02:32:39;14.40;99.90
23267;DHT22;11802;53.160;8.214;2023-07-13T02:35:05;14.40;99.90
23267;DHT22;11802;53.160;8.214;2023-07-13T02:37:31;14.40;99.90
23267;DHT22;11802;53.160;8.214;2023-07-13T02:39:57;14.50;99.90
23267;DHT22;11802;53.160;8.214;2023-07-13T02:42:22;14.40;99.90
23267;DHT22;11802;53.160;8.214;2023-07-13T02:44:48;14.40;99.90
23267;DHT22;11802;53.160;8.214;2023-07-13T02:47:15;14.40;99.90
23267;DHT22;11802;53.160;8.214;2023-07-13T02:49:40;14.40;99.90
23267;DHT22;11802;53.160;8.214;2023-07-13T02:52:06;14.50;99.90
23267;DHT22;11802;53.160;8.214;2023-07-13T02:54:31;14.50;99.90
23267;DHT22;11802;53.160;8.214;2023-07-13T02:56:57;14.50;99.90
23267;DHT22;11802;53.160;8.214;2023-07-13T02:59:23;14.50;99.90
23267;DHT22;11802;53.160;8.214;2023-07-13T03:01:48;14.60;99.90
23267;DHT22;11802;53.160;8.214;2023-07-13T03:04:14;14.60;99.90
23267;DHT22;11802;53.160;8.214;2023-07-13T03:06:39;14.60;99.90
23267;DHT22;11802;53.160;8.214;2023-07-13T03:09:05;14.60;99.90
23267;DHT22;11802;53.160;8.214;2023-07-13T03:11:31;14.60;99.90
23267;DHT22;11802;53.160;8.214;2023-07-13T03:13:57;14.60;99.90
23267;DHT22;11802;53.160;8.214;2023-07-13T03:16:22;14.60;99.90
23267;DHT22;11802;53.160;8.214;2023-07-13T03:18:48;14.70;99.90
23267;DHT22;11802;53.160;8.214;2023-07-13T03:21:14;14.70;99.90
23267;DHT22;11802;53.160;8.214;2023-07-13T03:23:40;14.70;99.90
23267;DHT22;11802;53.160;8.214;2023-07-13T03:26:08;14.70;99.90
23267;DHT22;11802;53.160;8.214;2023-07-13T03:28:34;14.70;99.90
23267;DHT22;11802;53.160;8.214;2023-07-13T03:31:05;14.70;99.90
23267;DHT22;11802;53.160;8.214;2023-07-13T03:33:31;14.70;99.90
23267;DHT22;11802;53.160;8.214;2023-07-13T03:35:57;14.70;99.90
23267;DHT22;11802;53.160;8.214;2023-07-13T03:38:23;14.70;99.90
23267;DHT22;11802;53.160;8.214;2023-07-13T03:40:48;14.70;99.90
23267;DHT22;11802;53.160;8.214;2023-07-13T03:43:14;14.70;99.90
23267;DHT22;11802;53.160;8.214;2023-07-13T03:45:40;14.80;99.90
23267;DHT22;11802;53.160;8.214;2023-07-13T03:48:06;14.80;99.90
23267;DHT22;11802;53.160;8.214;2023-07-13T03:50:31;14.80;99.90
23267;DHT22;11802;53.160;8.214;2023-07-13T03:52:58;14.80;99.90
23267;DHT22;11802;53.160;8.214;2023-07-13T03:55:23;14.80;99.90
23267;DHT22;11802;53.160;8.214;2023-07-13T03:57:57;14.80;99.90
23267;DHT22;11802;53.160;8.214;2023-07-13T04:00:23;14.80;99.90
23267;DHT22;11802;53.160;8.214;2023-07-13T04:02:49;14.90;99.90
23267;DHT22;11802;53.160;8.214;2023-07-13T04:05:15;14.90;99.90
23267;DHT22;11802;53.160;8.214;2023-07-13T04:07:40;14.90;99.90
23267;DHT22;11802;53.160;8.214;2023-07-13T04:10:06;14.90;99.90
23267;DHT22;11802;53.160;8.214;2023-07-13T04:12:32;14.90;99.90
23267;DHT22;11802;53.160;8.214;2023-07-13T04:14:57;15.00;99.90
23267;DHT22;11802;53.160;8.214;2023-07-13T04:17:23;15.00;99.90
23267;DHT22;11802;53.160;8.214;2023-07-13T04:19:48;15.10;99.90
23267;DHT22;11802;53.160;8.214;2023-07-13T04:22:14;15.00;99.90
23267;DHT22;11802;53.160;8.214;2023-07-13T04:24:40;15.10;99.90
23267;DHT22;11802;53.160;8.214;2023-07-13T04:27:06;15.10;99.90
23267;DHT22;11802;53.160;8.214;2023-07-13T04:29:32;15.20;99.90
23267;DHT22;11802;53.160;8.214;2023-07-13T04:31:57;15.20;99.90
23267;DHT22;11802;53.160;8.214;2023-07-13T04:34:23;15.20;99.90
23267;DHT22;11802;53.160;8.214;2023-07-13T04:36:49;15.20;99.90
23267;DHT22;11802;53.160;8.214;2023-07-13T04:39:15;15.30;99.90
23267;DHT22;11802;53.160;8.214;2023-07-13T04:41:42;15.40;99.90
23267;DHT22;11802;53.160;8.214;2023-07-13T04:44:07;15.40;99.90
23267;DHT22;11802;53.160;8.214;2023-07-13T04:46:33;15.50;99.90
23267;DHT22;11802;53.160;8.214;2023-07-13T04:48:58;15.60;99.90
23267;DHT22;11802;53.160;8.214;2023-07-13T04:51:24;15.60;99.90
23267;DHT22;11802;53.160;8.214;2023-07-13T04:53:50;15.70;99.90
23267;DHT22;11802;53.160;8.214;2023-07-13T04:56:15;15.70;99.90
23267;DHT22;11802;53.160;8.214;2023-07-13T04:58:41;15.80;99.90
23267;DHT22;11802;53.160;8.214;2023-07-13T05:01:07;15.90;99.90
23267;DHT22;11802;53.160;8.214;2023-07-13T05:03:34;16.00;99.90
23267;DHT22;11802;53.160;8.214;2023-07-13T05:06:02;16.20;99.90
23267;DHT22;11802;53.160;8.214;2023-07-13T05:08:28;16.60;99.90
23267;DHT22;11802;53.160;8.214;2023-07-13T05:10:54;17.00;99.90
23267;DHT22;11802;53.160;8.214;2023-07-13T05:13:20;17.10;99.90
23267;DHT22;11802;53.160;8.214;2023-07-13T05:15:52;17.10;99.90
23267;DHT22;11802;53.160;8.214;2023-07-13T05:18:20;17.00;99.90
23267;DHT22;11802;53.160;8.214;2023-07-13T05:20:45;16.70;99.90
23267;DHT22;11802;53.160;8.214;2023-07-13T05:23:11;16.70;99.90
23267;DHT22;11802;53.160;8.214;2023-07-13T05:25:36;16.50;99.90
23267;DHT22;11802;53.160;8.214;2023-07-13T05:28:02;16.50;99.90
23267;DHT22;11802;53.160;8.214;2023-07-13T05:30:27;16.30;99.90
23267;DHT22;11802;53.160;8.214;2023-07-13T05:32:53;16.40;99.90
23267;DHT22;11802;53.160;8.214;2023-07-13T05:35:18;16.40;99.90
23267;DHT22;11802;53.160;8.214;2023-07-13T05:37:44;16.50;99.90
23267;DHT22;11802;53.160;8.214;2023-07-13T05:40:09;16.50;99.90
23267;DHT22;11802;53.160;8.214;2023-07-13T05:42:35;16.60;99.90
23267;DHT22;11802;53.160;8.214;2023-07-13T05:45:02;16.60;99.90
23267;DHT22;11802;53.160;8.214;2023-07-13T05:47:27;16.70;99.90
23267;DHT22;11802;53.160;8.214;2023-07-13T05:49:53;16.80;99.90
23267;DHT22;11802;53.160;8.214;2023-07-13T05:52:19;16.90;99.90
23267;DHT22;11802;53.160;8.214;2023-07-13T05:54:44;17.10;99.90
23267;DHT22;11802;53.160;8.214;2023-07-13T05:57:10;17.30;99.90
23267;DHT22;11802;53.160;8.214;2023-07-13T05:59:35;17.50;99.90
23267;DHT22;11802;53.160;8.214;2023-07-13T06:02:01;17.60;99.90
23267;DHT22;11802;53.160;8.214;2023-07-13T06:04:27;17.70;99.90
23267;DHT22;11802;53.160;8.214;2023-07-13T06:06:52;17.90;99.90
23267;DHT22;11802;53.160;8.214;2023-07-13T06:09:18;18.10;99.90
23267;DHT22;11802;53.160;8.214;2023-07-13T06:11:44;18.30;99.90
23267;DHT22;11802;53.160;8.214;2023-07-13T06:14:10;18.50;99.90
23267;DHT22;11802;53.160;8.214;2023-07-13T06:16:35;18.70;99.90
23267;DHT22;11802;53.160;8.214;2023-07-13T06:19:01;18.90;99.90
23267;DHT22;11802;53.160;8.214;2023-07-13T06:21:26;19.50;99.90
23267;DHT22;11802;53.160;8.214;2023-07-13T06:23:52;20.10;1.00
23267;DHT22;11802;53.160;8.214;2023-07-13T06:26:19;20.60;99.90
23267;DHT22;11802;53.160;8.214;2023-07-13T06:28:45;21.00;1.00
23267;DHT22;11802;53.160;8.214;2023-07-13T06:31:12;21.50;51.40
23267;DHT22;11802;53.160;8.214;2023-07-13T06:33:38;21.60;1.00
23267;DHT22;11802;53.160;8.214;2023-07-13T06:36:05;21.60;1.00
23267;DHT22;11802;53.160;8.214;2023-07-13T06:38:31;22.60;1.00
23267;DHT22;11802;53.160;8.214;2023-07-13T06:40:57;23.60;99.90
23267;DHT22;11802;53.160;8.214;2023-07-13T06:43:23;23.90;83.50
23267;DHT22;11802;53.160;8.214;2023-07-13T06:45:50;24.80;1.00
23267;DHT22;11802;53.160;8.214;2023-07-13T06:48:17;25.60;99.90
23267;DHT22;11802;53.160;8.214;2023-07-13T06:50:43;27.00;4.30
23267;DHT22;11802;53.160;8.214;2023-07-13T06:53:10;27.10;1.00
23267;DHT22;11802;53.160;8.214;2023-07-13T06:55:35;26.90;1.00
23267;DHT22;11802;53.160;8.214;2023-07-13T06:58:01;27.10;1.00
23267;DHT22;11802;53.160;8.214;2023-07-13T07:00:26;27.60;1.00
23267;DHT22;11802;53.160;8.214;2023-07-13T07:02:52;29.20;1.00
23267;DHT22;11802;53.160;8.214;2023-07-13T07:05:18;29.60;1.00
23267;DHT22;11802;53.160;8.214;2023-07-13T07:07:48;30.50;99.90
23267;DHT22;11802;53.160;8.214;2023-07-13T07:10:13;31.00;99.90
23267;DHT22;11802;53.160;8.214;2023-07-13T07:12:40;31.10;99.90
23267;DHT22;11802;53.160;8.214;2023-07-13T07:15:05;29.10;99.90
23267;DHT22;11802;53.160;8.214;2023-07-13T07:17:31;28.70;99.90
23267;DHT22;11802;53.160;8.214;2023-07-13T07:19:57;28.00;99.90
23267;DHT22;11802;53.160;8.214;2023-07-13T07:22:22;28.50;99.90
23267;DHT22;11802;53.160;8.214;2023-07-13T07:24:48;28.90;99.90
23267;DHT22;11802;53.160;8.214;2023-07-13T07:27:13;29.30;99.90
23267;DHT22;11802;53.160;8.214;2023-07-13T07:29:39;30.00;99.90
23267;DHT22;11802;53.160;8.214;2023-07-13T07:32:04;29.30;99.90
23267;DHT22;11802;53.160;8.214;2023-07-13T07:34:31;29.60;99.90
23267;DHT22;11802;53.160;8.214;2023-07-13T07:36:59;30.20;99.90
23267;DHT22;11802;53.160;8.214;2023-07-13T07:39:26;29.70;99.90
23267;DHT22;11802;53.160;8.214;2023-07-13T07:41:51;29.50;99.90
23267;DHT22;11802;53.160;8.214;2023-07-13T07:44:17;28.60;99.90
23267;DHT22;11802;53.160;8.214;2023-07-13T07:46:42;29.00;99.90
23267;DHT22;11802;53.160;8.214;2023-07-13T07:49:08;29.60;99.90
23267;DHT22;11802;53.160;8.214;2023-07-13T07:51:33;30.50;99.90
23267;DHT22;11802;53.160;8.214;2023-07-13T07:53:59;29.20;99.90
23267;DHT22;11802;53.160;8.214;2023-07-13T07:56:25;30.60;99.90
23267;DHT22;11802;53.160;8.214;2023-07-13T07:58:51;30.60;99.90
23267;DHT22;11802;53.160;8.214;2023-07-13T08:01:16;30.40;99.90
23267;DHT22;11802;53.160;8.214;2023-07-13T08:03:42;32.00;99.90
23267;DHT22;11802;53.160;8.214;2023-07-13T08:06:07;32.20;99.90
23267;DHT22;11802;53.160;8.214;2023-07-13T08:08:34;31.60;99.90
23267;DHT22;11802;53.160;8.214;2023-07-13T08:11:04;31.30;99.90
23267;DHT22;11802;53.160;8.214;2023-07-13T08:13:30;31.40;99.90
23267;DHT22;11802;53.160;8.214;2023-07-13T08:15:55;31.20;99.90
23267;DHT22;11802;53.160;8.214;2023-07-13T08:18:21;31.60;99.90
23267;DHT22;11802;53.160;8.214;2023-07-13T08:20:47;31.20;99.90
23267;DHT22;11802;53.160;8.214;2023-07-13T08:23:12;32.90;99.90
23267;DHT22;11802;53.160;8.214;2023-07-13T08:25:38;33.70;99.90
23267;DHT22;11802;53.160;8.214;2023-07-13T08:28:04;33.10;99.90
23267;DHT22;11802;53.160;8.214;2023-07-13T08:30:30;32.50;99.90
23267;DHT22;11802;53.160;8.214;2023-07-13T08:32:56;31.50;99.90
23267;DHT22;11802;53.160;8.214;2023-07-13T08:35:22;31.50;99.90
23267;DHT22;11802;53.160;8.214;2023-07-13T08:37:47;31.10;99.90
23267;DHT22;11802;53.160;8.214;2023-07-13T08:40:13;31.40;99.90
23267;DHT22;11802;53.160;8.214;2023-07-13T08:42:43;31.30;99.90
23267;DHT22;11802;53.160;8.214;2023-07-13T08:45:21;32.60;99.90
23267;DHT22;11802;53.160;8.214;2023-07-13T08:47:53;32.80;99.90
23267;DHT22;11802;53.160;8.214;2023-07-13T08:50:24;33.10;99.90
23267;DHT22;11802;53.160;8.214;2023-07-13T08:52:51;32.30;99.90
23267;DHT22;11802;53.160;8.214;2023-07-13T08:55:24;33.60;99.90
23267;DHT22;11802;53.160;8.214;2023-07-13T08:58:12;34.10;99.90
23267;DHT22;11802;53.160;8.214;2023-07-13T09:00:52;33.90;99.90
23267;DHT22;11802;53.160;8.214;2023-07-13T09:03:23;33.10;99.90
23267;DHT22;11802;53.160;8.214;2023-07-13T09:05:58;30.50;99.90
23267;DHT22;11802;53.160;8.214;2023-07-13T09:14:34;29.90;99.90
23267;DHT22;11802;53.160;8.214;2023-07-13T09:17:04;31.00;99.90
23267;DHT22;11802;53.160;8.214;2023-07-13T09:19:32;31.80;99.90
23267;DHT22;11802;53.160;8.214;2023-07-13T09:21:59;31.80;99.90
23267;DHT22;11802;53.160;8.214;2023-07-13T09:24:53;32.30;99.90
23267;DHT22;11802;53.160;8.214;2023-07-13T09:27:23;31.70;99.90
23267;DHT22;11802;53.160;8.214;2023-07-13T09:30:02;30.80;99.90
23267;DHT22;11802;53.160;8.214;2023-07-13T09:32:29;28.50;99.90
23267;DHT22;11802;53.160;8.214;2023-07-13T09:34:55;28.60;99.90
23267;DHT22;11802;53.160;8.214;2023-07-13T09:37:23;30.30;99.90
23267;DHT22;11802;53.160;8.214;2023-07-13T09:39:53;31.50;99.90
23267;DHT22;11802;53.160;8.214;2023-07-13T09:42:22;30.30;99.90
23267;DHT22;11802;53.160;8.214;2023-07-13T09:47:25;28.90;99.90
23267;DHT22;11802;53.160;8.214;2023-07-13T09:52:24;31.00;99.90
23267;DHT22;11802;53.160;8.214;2023-07-13T09:54:50;30.60;99.90
23267;DHT22;11802;53.160;8.214;2023-07-13T09:57:18;29.70;99.90
23267;DHT22;11802;53.160;8.214;2023-07-13T09:59:46;29.50;99.90
23267;DHT22;11802;53.160;8.214;2023-07-13T10:02:38;30.30;99.90
23267;DHT22;11802;53.160;8.214;2023-07-13T10:05:11;30.50;99.90
23267;DHT22;11802;53.160;8.214;2023-07-13T10:07:40;30.80;99.90
23267;DHT22;11802;53.160;8.214;2023-07-13T10:10:19;29.30;99.90
23267;DHT22;11802;53.160;8.214;2023-07-13T10:12:45;29.40;99.90
23267;DHT22;11802;53.160;8.214;2023-07-13T10:15:22;29.20;99.90
23267;DHT22;11802;53.160;8.214;2023-07-13T10:17:50;29.90;99.90
23267;DHT22;11802;53.160;8.214;2023-07-13T10:20:16;29.20;99.90
23267;DHT22;11802;53.160;8.214;2023-07-13T10:25:23;30.20;99.90
23267;DHT22;11802;53.160;8.214;2023-07-13T10:27:53;29.70;99.90
23267;DHT22;11802;53.160;8.214;2023-07-13T10:30:27;29.70;99.90
23267;DHT22;11802;53.160;8.214;2023-07-13T10:32:58;30.10;99.90
23267;DHT22;11802;53.160;8.214;2023-07-13T10:35:24;29.70;99.90
23267;DHT22;11802;53.160;8.214;2023-07-13T10:38:02;29.30;99.90
23267;DHT22;11802;53.160;8.214;2023-07-13T10:40:37;28.50;99.90
23267;DHT22;11802;53.160;8.214;2023-07-13T10:43:09;28.20;99.90
23267;DHT22;11802;53.160;8.214;2023-07-13T10:45:39;27.80;99.90
23267;DHT22;11802;53.160;8.214;2023-07-13T10:48:06;27.00;99.90
23267;DHT22;11802;53.160;8.214;2023-07-13T10:50:38;27.00;99.90
23267;DHT22;11802;53.160;8.214;2023-07-13T10:53:29;26.30;99.90
23267;DHT22;11802;53.160;8.214;2023-07-13T10:56:02;25.70;1.00
23267;DHT22;11802;53.160;8.214;2023-07-13T10:58:38;25.20;1.00
23267;DHT22;11802;53.160;8.214;2023-07-13T11:01:13;24.50;1.00
23267;DHT22;11802;53.160;8.214;2023-07-13T11:03:55;23.70;99.90
23267;DHT22;11802;53.160;8.214;2023-07-13T11:06:33;23.10;1.00
23267;DHT22;11802;53.160;8.214;2023-07-13T11:09:31;22.40;1.00
23267;DHT22;11802;53.160;8.214;2023-07-13T11:12:03;21.60;99.90
23267;DHT22;11802;53.160;8.214;2023-07-13T11:14:43;21.20;99.90
23267;DHT22;11802;53.160;8.214;2023-07-13T11:17:37;20.10;99.90
23267;DHT22;11802;53.160;8.214;2023-07-13T11:20:20;19.80;1.00
23267;DHT22;11802;53.160;8.214;2023-07-13T11:22:51;19.40;99.90
23267;DHT22;11802;53.160;8.214;2023-07-13T11:27:50;19.00;1.00
23267;DHT22;11802;53.160;8.214;2023-07-13T11:35:34;19.30;1.00
23267;DHT22;11802;53.160;8.214;2023-07-13T11:38:02;19.40;1.00
23267;DHT22;11802;53.160;8.214;2023-07-13T11:40:29;19.50;1.00
23267;DHT22;11802;53.160;8.214;2023-07-13T11:43:01;19.40;1.00
23267;DHT22;11802;53.160;8.214;2023-07-13T11:45:27;19.30;1.00
23267;DHT22;11802;53.160;8.214;2023-07-13T11:47:54;19.60;1.00
23267;DHT22;11802;53.160;8.214;2023-07-13T11:50:23;20.00;1.00
23267;DHT22;11802;53.160;8.214;2023-07-13T11:52:50;20.20;1.00
23267;DHT22;11802;53.160;8.214;2023-07-13T11:55:20;20.50;1.00
23267;DHT22;11802;53.160;8.214;2023-07-13T11:58:07;20.50;1.00
23267;DHT22;11802;53.160;8.214;2023-07-13T12:00:34;20.80;1.00
23267;DHT22;11802;53.160;8.214;2023-07-13T12:03:01;21.60;1.00
23267;DHT22;11802;53.160;8.214;2023-07-13T12:05:30;21.90;1.00
23267;DHT22;11802;53.160;8.214;2023-07-13T12:07:57;22.50;1.00
23267;DHT22;11802;53.160;8.214;2023-07-13T12:10:25;22.40;1.00
23267;DHT22;11802;53.160;8.214;2023-07-13T12:12:53;22.90;1.00
23267;DHT22;11802;53.160;8.214;2023-07-13T12:15:21;23.30;99.90
23267;DHT22;11802;53.160;8.214;2023-07-13T12:17:48;23.40;1.00
23267;DHT22;11802;53.160;8.214;2023-07-13T12:20:35;23.40;99.90
23267;DHT22;11802;53.160;8.214;2023-07-13T12:23:05;23.60;99.90
23267;DHT22;11802;53.160;8.214;2023-07-13T12:25:31;23.70;1.00
23267;DHT22;11802;53.160;8.214;2023-07-13T12:27:57;23.70;99.90
23267;DHT22;11802;53.160;8.214;2023-07-13T12:30:29;23.60;99.90
23267;DHT22;11802;53.160;8.214;2023-07-13T12:33:07;24.10;1.00
23267;DHT22;11802;53.160;8.214;2023-07-13T12:35:48;24.60;99.90
23267;DHT22;11802;53.160;8.214;2023-07-13T12:38:15;25.30;1.00
23267;DHT22;11802;53.160;8.214;2023-07-13T12:40:41;25.50;99.90
23267;DHT22;11802;53.160;8.214;2023-07-13T12:43:12;25.70;73.10
23267;DHT22;11802;53.160;8.214;2023-07-13T12:45:39;26.10;1.00
23267;DHT22;11802;53.160;8.214;2023-07-13T12:48:15;26.30;1.00
23267;DHT22;11802;53.160;8.214;2023-07-13T12:50:45;26.00;1.00
23267;DHT22;11802;53.160;8.214;2023-07-13T12:53:22;26.10;1.00
23267;DHT22;11802;53.160;8.214;2023-07-13T12:55:57;25.70;1.00
23267;DHT22;11802;53.160;8.214;2023-07-13T12:58:29;25.50;1.00
23267;DHT22;11802;53.160;8.214;2023-07-13T13:00:58;24.80;1.00
23267;DHT22;11802;53.160;8.214;2023-07-13T13:08:25;24.90;1.00
23267;DHT22;11802;53.160;8.214;2023-07-13T13:10:50;24.40;1.00
23267;DHT22;11802;53.160;8.214;2023-07-13T13:13:16;24.60;1.00
23267;DHT22;11802;53.160;8.214;2023-07-13T13:15:41;24.60;1.00
23267;DHT22;11802;53.160;8.214;2023-07-13T13:18:15;25.10;1.00
23267;DHT22;11802;53.160;8.214;2023-07-13T13:20:42;25.10;1.00
23267;DHT22;11802;53.160;8.214;2023-07-13T13:23:13;25.00;1.00
23267;DHT22;11802;53.160;8.214;2023-07-13T13:25:41;24.70;1.00
23267;DHT22;11802;53.160;8.214;2023-07-13T13:28:13;24.00;1.00
23267;DHT22;11802;53.160;8.214;2023-07-13T13:30:39;23.60;1.00
23267;DHT22;11802;53.160;8.214;2023-07-13T13:33:10;23.60;99.90
23267;DHT22;11802;53.160;8.214;2023-07-13T13:35:36;23.80;1.00
23267;DHT22;11802;53.160;8.214;2023-07-13T13:38:01;23.90;99.90
23267;DHT22;11802;53.160;8.214;2023-07-13T13:40:27;24.00;99.90
23267;DHT22;11802;53.160;8.214;2023-07-13T13:42:53;24.00;99.90
23267;DHT22;11802;53.160;8.214;2023-07-13T13:45:20;24.00;99.90
23267;DHT22;11802;53.160;8.214;2023-07-13T13:47:46;23.50;99.90
23267;DHT22;11802;53.160;8.214;2023-07-13T13:50:17;23.20;1.00
23267;DHT22;11802;53.160;8.214;2023-07-13T13:52:44;23.00;1.00
23267;DHT22;11802;53.160;8.214;2023-07-13T13:55:21;23.00;99.90
23267;DHT22;11802;53.160;8.214;2023-07-13T13:57:47;23.10;99.90
23267;DHT22;11802;53.160;8.214;2023-07-13T14:00:14;23.30;1.00
23267;DHT22;11802;53.160;8.214;2023-07-13T14:02:46;23.70;99.90
23267;DHT22;11802;53.160;8.214;2023-07-13T14:05:14;23.60;99.90
23267;DHT22;11802;53.160;8.214;2023-07-13T14:07:41;23.80;99.90
23267;DHT22;11802;53.160;8.214;2023-07-13T14:10:25;23.50;70.90
23267;DHT22;11802;53.160;8.214;2023-07-13T14:12:53;23.00;99.90
23267;DHT22;11802;53.160;8.214;2023-07-13T14:15:27;22.60;1.00
23267;DHT22;11802;53.160;8.214;2023-07-13T14:17:54;21.90;99.90
23267;DHT22;11802;53.160;8.214;2023-07-13T14:20:21;21.40;99.90
23267;DHT22;11802;53.160;8.214;2023-07-13T14:22:49;20.90;1.00
23267;DHT22;11802;53.160;8.214;2023-07-13T14:25:16;20.30;1.00
23267;DHT22;11802;53.160;8.214;2023-07-13T14:27:43;19.70;1.00
23267;DHT22;11802;53.160;8.214;2023-07-13T14:30:20;19.50;1.00
23267;DHT22;11802;53.160;8.214;2023-07-13T14:32:46;19.40;3.20
23267;DHT22;11802;53.160;8.214;2023-07-13T14:35:13;19.70;40.40
23267;DHT22;11802;53.160;8.214;2023-07-13T14:37:40;19.80;1.00
23267;DHT22;11802;53.160;8.214;2023-07-13T14:40:14;19.80;1.00
23267;DHT22;11802;53.160;8.214;2023-07-13T14:42:40;19.80;1.00
23267;DHT22;11802;53.160;8.214;2023-07-13T14:45:09;19.60;1.00
23267;DHT22;11802;53.160;8.214;2023-07-13T14:47:37;19.60;1.00
23267;DHT22;11802;53.160;8.214;2023-07-13T14:50:02;19.80;1.00
23267;DHT22;11802;53.160;8.214;2023-07-13T14:52:31;19.80;1.00
23267;DHT22;11802;53.160;8.214;2023-07-13T14:54:56;19.80;1.00
23267;DHT22;11802;53.160;8.214;2023-07-13T14:57:21;19.70;1.00
23267;DHT22;11802;53.160;8.214;2023-07-13T14:59:47;19.60;1.00
23267;DHT22;11802;53.160;8.214;2023-07-13T15:02:29;19.60;1.00
23267;DHT22;11802;53.160;8.214;2023-07-13T15:04:55;19.50;1.00
23267;DHT22;11802;53.160;8.214;2023-07-13T15:07:21;19.60;1.00
23267;DHT22;11802;53.160;8.214;2023-07-13T15:09:48;19.60;1.00
23267;DHT22;11802;53.160;8.214;2023-07-13T15:12:14;19.50;1.00
23267;DHT22;11802;53.160;8.214;2023-07-13T15:14:40;19.50;55.60
23267;DHT22;11802;53.160;8.214;2023-07-13T15:17:31;19.30;61.20
23267;DHT22;11802;53.160;8.214;2023-07-13T15:19:57;19.10;99.90
23267;DHT22;11802;53.160;8.214;2023-07-13T15:22:24;18.70;41.80
23267;DHT22;11802;53.160;8.214;2023-07-13T15:24:49;18.40;1.00
23267;DHT22;11802;53.160;8.214;2023-07-13T15:27:15;18.40;89.70
23267;DHT22;11802;53.160;8.214;2023-07-13T15:29:41;18.50;99.90
23267;DHT22;11802;53.160;8.214;2023-07-13T15:32:13;18.80;99.90
23267;DHT22;11802;53.160;8.214;2023-07-13T15:34:39;19.00;99.90
23267;DHT22;11802;53.160;8.214;2023-07-13T15:37:23;18.90;99.90
23267;DHT22;11802;53.160;8.214;2023-07-13T15:39:49;18.90;99.90
23267;DHT22;11802;53.160;8.214;2023-07-13T15:42:19;19.10;99.90
23267;DHT22;11802;53.160;8.214;2023-07-13T15:44:45;19.30;99.90
23267;DHT22;11802;53.160;8.214;2023-07-13T15:47:12;19.40;99.90
23267;DHT22;11802;53.160;8.214;2023-07-13T15:49:40;19.50;99.90
23267;DHT22;11802;53.160;8.214;2023-07-13T15:52:22;19.80;99.90
23267;DHT22;11802;53.160;8.214;2023-07-13T15:54:48;20.00;99.90
23267;DHT22;11802;53.160;8.214;2023-07-13T15:57:14;20.10;26.40
23267;DHT22;11802;53.160;8.214;2023-07-13T15:59:41;19.90;1.00
23267;DHT22;11802;53.160;8.214;2023-07-13T16:02:19;20.00;1.00
23267;DHT22;11802;53.160;8.214;2023-07-13T16:04:46;19.80;31.00
23267;DHT22;11802;53.160;8.214;2023-07-13T16:07:14;19.80;92.10
23267;DHT22;11802;53.160;8.214;2023-07-13T16:09:41;20.00;99.90